createdAt,value
2018-12-06T00:00:08.363Z,101301.02
2018-12-06T00:02:37.405Z,101295.30
2018-12-06T00:05:06.426Z,101293.47
2018-12-06T00:07:35.443Z,101289.17
2018-12-06T00:10:04.542Z,101274.33
2018-12-06T00:12:33.581Z,101267.83
2018-12-06T00:15:25.871Z,101287.55
2018-12-06T00:17:54.937Z,101289.27
2018-12-06T00:20:23.982Z,101273.55
2018-12-06T00:22:53.021Z,101277.37
2018-12-06T00:25:22.037Z,101273.92
2018-12-06T00:27:51.095Z,101273.07
2018-12-06T00:30:32.803Z,101266.88
2018-12-06T00:33:02.810Z,101264.77
2018-12-06T00:35:31.965Z,101256.91
2018-12-06T00:38:01.137Z,101263.91
2018-12-06T00:40:30.144Z,101256.03
2018-12-06T00:42:59.203Z,101241.61
2018-12-06T00:45:28.350Z,101240.75
2018-12-06T00:47:57.338Z,101239.84
2018-12-06T00:50:26.390Z,101232.88
2018-12-06T00:52:55.464Z,101244.99
2018-12-06T00:55:24.490Z,101236.30
2018-12-06T00:57:53.498Z,101231.52
2018-12-06T01:00:22.558Z,101230.73
2018-12-06T01:02:51.591Z,101224.59
2018-12-06T01:05:20.632Z,101228.55
2018-12-06T01:07:49.704Z,101221.52
2018-12-06T01:10:19.063Z,101220.62
2018-12-06T01:12:49.659Z,101217.59
2018-12-06T01:15:18.656Z,101211.45
2018-12-06T01:17:47.700Z,101214.15
2018-12-06T01:20:18.246Z,101215.54
2018-12-06T01:22:47.262Z,101206.34
2018-12-06T01:25:16.307Z,101206.37
2018-12-06T01:27:45.305Z,101206.30
2018-12-06T01:30:14.960Z,101205.49
2018-12-06T01:32:44.006Z,101201.99
2018-12-06T01:35:13.699Z,101198.99
2018-12-06T01:37:42.752Z,101185.03
2018-12-06T01:40:11.790Z,101191.98
2018-12-06T01:42:40.891Z,101186.31
2018-12-06T01:45:09.905Z,101184.12
2018-12-06T01:47:39.056Z,101181.98
2018-12-06T01:50:08.338Z,101177.73
2018-12-06T01:52:37.386Z,101171.98
2018-12-06T01:55:06.415Z,101163.66
2018-12-06T01:57:35.435Z,101153.59
2018-12-06T02:00:04.983Z,101159.25
2018-12-06T02:02:34.394Z,101146.63
2018-12-06T02:05:03.773Z,101133.96
2018-12-06T02:07:32.859Z,101133.12
2018-12-06T02:10:01.921Z,101126.97
2018-12-06T02:12:30.928Z,101127.76
2018-12-06T02:15:00.129Z,101123.91
2018-12-06T02:17:29.162Z,101117.80
2018-12-06T02:19:58.219Z,101113.44
2018-12-06T02:22:27.266Z,101112.63
2018-12-06T02:24:56.295Z,101111.30
2018-12-06T02:27:25.323Z,101109.21
2018-12-06T02:29:54.340Z,101098.27
2018-12-06T02:32:24.064Z,101097.80
2018-12-06T02:34:53.534Z,101103.48
2018-12-06T02:37:22.557Z,101096.89
2018-12-06T02:39:51.597Z,101096.86
2018-12-06T02:42:20.648Z,101090.29
2018-12-06T02:44:49.802Z,101081.54
2018-12-06T02:47:18.970Z,101075.02
2018-12-06T02:49:48.100Z,101073.70
2018-12-06T02:52:17.199Z,101072.38
2018-12-06T02:54:49.610Z,101073.30
2018-12-06T02:57:18.684Z,101072.49
2018-12-06T02:59:47.691Z,101071.52
2018-12-06T03:02:16.726Z,101062.02
2018-12-06T03:04:52.548Z,101072.10
2018-12-06T03:07:21.954Z,101069.92
2018-12-06T03:09:51.003Z,101074.70
2018-12-06T03:12:20.053Z,101073.33
2018-12-06T03:14:55.649Z,101078.16
2018-12-06T03:17:24.649Z,101075.06
2018-12-06T03:19:53.745Z,101080.70
2018-12-06T03:22:22.803Z,101082.05
2018-12-06T03:24:56.009Z,101077.71
2018-12-06T03:27:25.051Z,101084.29
2018-12-06T03:29:54.075Z,101087.73
2018-12-06T03:32:23.153Z,101084.73
2018-12-06T03:34:52.174Z,101083.88
2018-12-06T03:37:31.210Z,101080.78
2018-12-06T03:40:00.272Z,101069.42
2018-12-06T03:42:29.268Z,101066.38
2018-12-06T03:44:58.343Z,101068.15
2018-12-06T03:47:27.370Z,101074.61
2018-12-06T03:49:56.477Z,101074.66
2018-12-06T03:52:26.761Z,101070.25
2018-12-06T03:54:55.808Z,101076.44
2018-12-06T03:57:24.827Z,101075.05
2018-12-06T03:59:53.868Z,101078.53
2018-12-06T04:02:23.001Z,101071.55
2018-12-06T04:04:52.115Z,101079.34
2018-12-06T04:07:21.145Z,101074.58
2018-12-06T04:09:50.327Z,101076.72
2018-12-06T04:12:23.433Z,101071.02
2018-12-06T04:14:52.493Z,101057.92
2018-12-06T04:17:21.525Z,101050.98
2018-12-06T04:19:50.568Z,101039.14
2018-12-06T04:22:19.655Z,101045.26
2018-12-06T04:24:49.038Z,101045.26
2018-12-06T04:27:18.053Z,101058.33
2018-12-06T04:29:47.194Z,101056.17
2018-12-06T04:32:17.540Z,101061.36
2018-12-06T04:34:46.876Z,101048.75
2018-12-06T04:37:16.026Z,101059.72
2018-12-06T04:39:45.090Z,101051.45
2018-12-06T04:42:14.221Z,101056.70
2018-12-06T04:44:44.019Z,101059.67
2018-12-06T04:47:19.039Z,101062.24
2018-12-06T04:49:48.677Z,101048.79
2018-12-06T04:52:17.710Z,101036.53
2018-12-06T04:54:46.772Z,101022.16
2018-12-06T04:57:15.819Z,101022.18
2018-12-06T04:59:45.452Z,101022.19
2018-12-06T05:02:14.576Z,101021.70
2018-12-06T05:04:43.643Z,101030.48
2018-12-06T05:07:13.372Z,101021.41
2018-12-06T05:09:49.339Z,101012.68
2018-12-06T05:12:18.972Z,101006.98
2018-12-06T05:14:48.197Z,101005.67
2018-12-06T05:17:17.230Z,100999.63
2018-12-06T05:19:46.298Z,100991.31
2018-12-06T05:22:15.379Z,100983.50
2018-12-06T05:24:44.396Z,100982.61
2018-12-06T05:27:13.448Z,100968.63
2018-12-06T05:29:43.921Z,100964.72
2018-12-06T05:32:13.053Z,100953.33
2018-12-06T05:34:42.218Z,100937.66
2018-12-06T05:37:11.259Z,100922.80
2018-12-06T05:39:40.341Z,100916.69
2018-12-06T05:42:09.385Z,100930.64
2018-12-06T05:44:38.461Z,100937.22
2018-12-06T05:47:07.528Z,100969.55
2018-12-06T05:49:40.545Z,100979.69
2018-12-06T05:52:09.633Z,100996.69
2018-12-06T05:54:38.708Z,101003.70
2018-12-06T05:57:07.768Z,101003.74
2018-12-06T05:59:36.833Z,101010.80
2018-12-06T06:02:05.859Z,101010.78
2018-12-06T06:04:34.923Z,101004.69
2018-12-06T06:07:04.052Z,101006.37
2018-12-06T06:09:33.116Z,101012.98
2018-12-06T06:12:02.262Z,101014.78
2018-12-06T06:14:31.319Z,101011.72
2018-12-06T06:17:00.551Z,101006.92
2018-12-06T06:19:29.655Z,101009.95
2018-12-06T06:21:58.732Z,101007.34
2018-12-06T06:24:28.813Z,101007.79
2018-12-06T06:26:58.036Z,101006.89
2018-12-06T06:29:28.353Z,101005.61
2018-12-06T06:31:57.356Z,101000.80
2018-12-06T06:34:26.381Z,101009.93
2018-12-06T06:36:58.640Z,101006.50
2018-12-06T06:39:27.727Z,101006.50
2018-12-06T06:41:57.324Z,101013.89
2018-12-06T06:44:27.061Z,101022.20
2018-12-06T06:46:56.249Z,101030.13
2018-12-06T06:49:25.345Z,101034.03
2018-12-06T06:51:56.025Z,101027.50
2018-12-06T06:54:25.087Z,101034.03
2018-12-06T06:56:54.129Z,101036.67
2018-12-06T06:59:26.274Z,101034.07
2018-12-06T07:01:54.341Z,101046.32
2018-12-06T07:04:23.433Z,101043.23
2018-12-06T07:06:53.837Z,101047.56
2018-12-06T07:09:29.457Z,101046.25
2018-12-06T07:11:58.914Z,101046.73
2018-12-06T07:14:27.973Z,101041.44
2018-12-06T07:16:56.992Z,101047.59
2018-12-06T07:19:31.889Z,101045.84
2018-12-06T07:22:04.311Z,101055.91
2018-12-06T07:24:33.952Z,101055.88
2018-12-06T07:27:04.117Z,101058.09
2018-12-06T07:29:36.519Z,101058.09
2018-12-06T07:32:05.561Z,101058.94
2018-12-06T07:34:35.343Z,101060.30
2018-12-06T07:37:04.343Z,101062.48
2018-12-06T07:39:33.505Z,101068.14
2018-12-06T07:42:02.589Z,101073.90
2018-12-06T07:44:31.641Z,101074.74
2018-12-06T07:47:00.714Z,101074.75
2018-12-06T07:49:29.805Z,101076.50
2018-12-06T07:51:59.108Z,101072.55
2018-12-06T07:54:35.557Z,101061.17
2018-12-06T07:57:07.157Z,101057.25
2018-12-06T07:59:36.208Z,101055.08
2018-12-06T08:02:05.239Z,101053.77
2018-12-06T08:04:41.113Z,101040.20
2018-12-06T08:07:10.215Z,101029.27
2018-12-06T08:09:39.302Z,101020.10
2018-12-06T08:12:08.548Z,101009.64
2018-12-06T08:14:37.590Z,101004.79
2018-12-06T08:17:06.837Z,100997.80
2018-12-06T08:19:35.875Z,100993.44
2018-12-06T08:22:05.001Z,100985.58
2018-12-06T08:24:34.041Z,100974.66
2018-12-06T08:27:07.233Z,100969.84
2018-12-06T08:29:36.271Z,100969.86
2018-12-06T08:32:05.414Z,100977.75
2018-12-06T08:34:34.469Z,100993.92
2018-12-06T08:37:04.363Z,100999.59
2018-12-06T08:39:33.453Z,101010.98
2018-12-06T08:42:02.588Z,101021.48
2018-12-06T08:44:31.668Z,101037.71
2018-12-06T08:47:00.730Z,101049.53
2018-12-06T08:49:31.569Z,101053.92
2018-12-06T08:52:00.642Z,101067.89
2018-12-06T08:54:29.713Z,101068.78
2018-12-06T08:56:58.778Z,101069.66
2018-12-06T08:59:27.832Z,101069.66
2018-12-06T09:01:56.951Z,101060.03
2018-12-06T09:04:25.998Z,101063.54
2018-12-06T09:06:55.100Z,101059.58
2018-12-06T09:09:24.558Z,101050.84
2018-12-06T09:11:54.562Z,101046.05
2018-12-06T09:14:23.645Z,101043.40
2018-12-06T09:16:58.067Z,101036.83
2018-12-06T09:19:29.487Z,101028.50
2018-12-06T09:21:58.567Z,101018.85
2018-12-06T09:24:35.104Z,101009.25
2018-12-06T09:27:04.689Z,101000.91
2018-12-06T09:29:33.990Z,100993.94
2018-12-06T09:32:03.090Z,100987.36
2018-12-06T09:34:38.313Z,100979.48
2018-12-06T09:37:07.386Z,100977.70
2018-12-06T09:39:36.524Z,100972.47
2018-12-06T09:42:05.587Z,100965.91
2018-12-06T09:44:34.718Z,100961.05
2018-12-06T09:47:03.784Z,100958.89
2018-12-06T09:49:32.913Z,100961.05
2018-12-06T09:52:01.994Z,100972.83
2018-12-06T09:54:34.480Z,100967.99
2018-12-06T09:57:03.586Z,100971.89
2018-12-06T09:59:33.092Z,100970.56
2018-12-06T10:02:02.206Z,100961.78
2018-12-06T10:04:36.385Z,100958.29
2018-12-06T10:07:05.449Z,100956.97
2018-12-06T10:09:34.635Z,100963.92
2018-12-06T10:12:03.691Z,100975.71
2018-12-06T10:14:35.800Z,100982.72
2018-12-06T10:17:04.837Z,100990.99
2018-12-06T10:19:33.873Z,100994.50
2018-12-06T10:22:02.923Z,101005.42
2018-12-06T10:24:31.997Z,101009.32
2018-12-06T10:27:01.449Z,101011.05
2018-12-06T10:29:34.211Z,101016.29
2018-12-06T10:32:03.300Z,101017.61
2018-12-06T10:34:33.264Z,101014.95
2018-12-06T10:37:09.662Z,101006.62
2018-12-06T10:39:38.738Z,100998.78
2018-12-06T10:42:07.778Z,100997.39
2018-12-06T10:44:37.453Z,100993.03
2018-12-06T10:47:06.817Z,100977.73
2018-12-06T10:49:36.693Z,100945.34
2018-12-06T10:52:05.855Z,100920.80
2018-12-06T10:54:35.029Z,100901.59
2018-12-06T10:57:04.130Z,100889.23
2018-12-06T10:59:33.239Z,100906.30
2018-12-06T11:02:03.844Z,100908.44
2018-12-06T11:04:34.902Z,100907.87
2018-12-06T11:07:05.448Z,100902.14
2018-12-06T11:09:36.041Z,100908.69
2018-12-06T11:12:05.103Z,100906.84
2018-12-06T11:14:34.180Z,100919.86
2018-12-06T11:17:03.251Z,100922.45
2018-12-06T11:19:32.345Z,100939.23
2018-12-06T11:22:03.023Z,100929.91
2018-12-06T11:24:32.067Z,100929.17
2018-12-06T11:27:01.179Z,100922.52
2018-12-06T11:29:30.233Z,100921.06
2018-12-06T11:32:01.979Z,100926.30
2018-12-06T11:34:35.358Z,100933.28
2018-12-06T11:37:04.422Z,100914.00
2018-12-06T11:39:33.433Z,100900.84
2018-12-06T11:42:02.534Z,100906.06
2018-12-06T11:44:36.609Z,100900.27
2018-12-06T11:47:05.644Z,100912.56
2018-12-06T11:49:34.862Z,100919.94
2018-12-06T11:52:03.952Z,100934.35
2018-12-06T11:54:35.524Z,100949.59
2018-12-06T11:57:04.597Z,100946.11
2018-12-06T11:59:33.677Z,100956.14
2018-12-06T12:02:09.735Z,100963.64
2018-12-06T12:04:36.852Z,100960.48
2018-12-06T12:07:05.955Z,100955.73
2018-12-06T12:09:35.057Z,100944.36
2018-12-06T12:12:04.181Z,100931.72
2018-12-06T12:14:33.263Z,100928.64
2018-12-06T12:17:02.413Z,100941.68
2018-12-06T12:19:31.536Z,100944.28
2018-12-06T12:22:04.639Z,100945.95
2018-12-06T12:24:40.979Z,100942.43
2018-12-06T12:27:10.085Z,100939.80
2018-12-06T12:29:39.637Z,100918.31
2018-12-06T12:32:08.737Z,100929.64
2018-12-06T12:34:38.210Z,100929.65
2018-12-06T12:37:07.300Z,100930.88
2018-12-06T12:39:36.385Z,100937.95
2018-12-06T12:42:05.861Z,100931.75
2018-12-06T12:44:34.961Z,100930.39
2018-12-06T12:47:19.834Z,100926.91
2018-12-06T12:49:48.943Z,100921.64
2018-12-06T12:52:17.998Z,100910.27
2018-12-06T12:54:47.371Z,100910.70
2018-12-06T12:57:21.507Z,100917.20
2018-12-06T12:59:52.275Z,100911.44
2018-12-06T13:02:21.583Z,100914.08
2018-12-06T13:04:55.948Z,100915.73
2018-12-06T13:07:25.207Z,100913.98
2018-12-06T13:09:54.825Z,100916.08
2018-12-06T13:12:24.186Z,100905.04
2018-12-06T13:14:53.426Z,100901.91
2018-12-06T13:17:22.854Z,100903.66
2018-12-06T13:20:03.128Z,100889.70
2018-12-06T13:22:33.656Z,100898.00
2018-12-06T13:25:05.415Z,100891.41
2018-12-06T13:27:34.601Z,100908.48
2018-12-06T13:30:06.219Z,100903.21
2018-12-06T13:35:29.564Z,100889.55
2018-12-06T13:37:58.678Z,100890.31
2018-12-06T13:40:28.039Z,100900.41
2018-12-06T13:43:01.690Z,100880.30
2018-12-06T13:45:32.478Z,100864.92
2018-12-06T13:48:02.256Z,100854.70
2018-12-06T13:50:36.650Z,100880.52
2018-12-06T13:53:05.796Z,100871.72
2018-12-06T13:55:34.861Z,100872.44
2018-12-06T13:58:05.109Z,100878.15
2018-12-06T14:00:34.417Z,100873.36
2018-12-06T14:03:12.565Z,100877.59
2018-12-06T14:05:41.623Z,100885.44
2018-12-06T14:08:10.697Z,100891.16
2018-12-06T14:10:39.753Z,100887.08
2018-12-06T14:13:08.840Z,100894.11
2018-12-06T14:15:37.929Z,100895.33
2018-12-06T14:18:07.160Z,100885.20
2018-12-06T14:20:36.322Z,100881.48
2018-12-06T14:23:05.433Z,100883.30
2018-12-06T14:25:42.321Z,100885.11
2018-12-06T14:28:11.395Z,100888.47
2018-12-06T14:30:40.505Z,100884.92
2018-12-06T14:33:09.748Z,100878.75
2018-12-06T14:35:38.787Z,100883.98
2018-12-06T14:38:18.037Z,100885.31
2018-12-06T14:40:54.002Z,100896.76
2018-12-06T14:43:24.179Z,100893.22
2018-12-06T14:45:53.487Z,100883.47
2018-12-06T14:48:22.831Z,100873.47
2018-12-06T14:50:51.955Z,100867.20
2018-12-06T14:53:21.051Z,100870.28
2018-12-06T14:55:51.000Z,100866.32
2018-12-06T14:58:20.065Z,100871.67
2018-12-06T15:00:49.146Z,100887.81
2018-12-06T15:03:18.241Z,100892.59
2018-12-06T15:05:47.339Z,100898.75
2018-12-06T15:08:16.443Z,100904.78
2018-12-06T15:10:45.506Z,100904.33
2018-12-06T15:13:14.577Z,100896.84
2018-12-06T15:15:43.688Z,100897.72
2018-12-06T15:18:12.776Z,100898.61
2018-12-06T15:20:52.330Z,100895.09
2018-12-06T15:23:21.362Z,100887.52
2018-12-06T15:25:50.532Z,100889.73
2018-12-06T15:28:19.621Z,100891.07
2018-12-06T15:30:48.608Z,100892.84
2018-12-06T15:33:36.457Z,100893.67
2018-12-06T15:36:05.573Z,100890.08
2018-12-06T15:38:34.660Z,100885.16
2018-12-06T15:41:03.774Z,100887.80
2018-12-06T15:43:33.387Z,100880.00
2018-12-06T15:46:02.474Z,100885.68
2018-12-06T15:48:31.627Z,100885.97
2018-12-06T15:51:15.453Z,100879.81
2018-12-06T15:53:44.646Z,100878.02
2018-12-06T15:56:13.743Z,100873.25
2018-12-06T15:58:42.818Z,100867.47
2018-12-06T16:01:18.712Z,100863.36
2018-12-06T16:04:05.899Z,100867.75
2018-12-06T16:06:39.418Z,100858.97
2018-12-06T16:09:08.482Z,100863.72
2018-12-06T16:11:37.647Z,100860.66
2018-12-06T16:14:06.778Z,100863.66
2018-12-06T16:16:35.887Z,100860.56
2018-12-06T16:19:28.594Z,100863.13
2018-12-06T16:21:57.842Z,100868.41
2018-12-06T16:24:26.934Z,100870.38
2018-12-06T16:26:56.015Z,100867.31
2018-12-06T16:29:25.058Z,100868.09
2018-12-06T16:31:54.192Z,100867.31
2018-12-06T16:34:23.260Z,100871.17
2018-12-06T16:36:52.392Z,100867.22
2018-12-06T16:39:21.687Z,100861.49
2018-12-06T16:42:03.596Z,100861.35
2018-12-06T16:44:33.037Z,100862.16
2018-12-06T16:47:02.088Z,100871.31
2018-12-06T16:49:32.113Z,100869.17
2018-12-06T16:52:05.468Z,100867.84
2018-12-06T16:54:34.574Z,100858.55
2018-12-06T16:57:03.673Z,100859.77
2018-12-06T16:59:32.815Z,100859.33
2018-12-06T17:02:01.930Z,100854.98
2018-12-06T17:04:30.968Z,100864.09
2018-12-06T17:07:00.046Z,100865.27
2018-12-06T17:09:38.328Z,100862.62
2018-12-06T17:12:08.737Z,100857.32
2018-12-06T17:14:38.044Z,100864.30
2018-12-06T17:17:07.136Z,100865.23
2018-12-06T17:19:36.346Z,100862.18
2018-12-06T17:22:05.440Z,100849.66
2018-12-06T17:24:34.499Z,100847.09
2018-12-06T17:27:03.563Z,100852.30
2018-12-06T17:29:33.798Z,100855.47
2018-12-06T17:32:07.909Z,100853.18
2018-12-06T17:34:36.998Z,100842.62
2018-12-06T17:37:06.066Z,100854.65
2018-12-06T17:39:36.119Z,100853.72
2018-12-06T17:42:05.236Z,100853.63
2018-12-06T17:44:41.325Z,100861.47
2018-12-06T17:47:10.446Z,100861.02
2018-12-06T17:49:39.563Z,100856.25
2018-12-06T17:52:08.703Z,100848.70
2018-12-06T17:54:42.077Z,100846.41
2018-12-06T17:57:11.253Z,100841.13
2018-12-06T17:59:40.323Z,100846.13
2018-12-06T18:02:09.412Z,100831.86
2018-12-06T18:04:42.320Z,100839.05
2018-12-06T18:07:11.371Z,100845.07
2018-12-06T18:09:40.541Z,100852.93
2018-12-06T18:12:09.672Z,100848.52
2018-12-06T18:14:38.853Z,100857.42
2018-12-06T18:17:07.980Z,100851.70
2018-12-06T18:19:37.124Z,100859.60
2018-12-06T18:22:06.248Z,100849.84
2018-12-06T18:24:35.346Z,100836.26
2018-12-06T18:27:04.527Z,100845.89
2018-12-06T18:29:33.654Z,100841.39
2018-12-06T18:32:02.732Z,100839.16
2018-12-06T18:34:31.820Z,100833.45
2018-12-06T18:37:00.946Z,100827.25
2018-12-06T18:39:30.024Z,100820.55
2018-12-06T18:42:06.820Z,100818.46
2018-12-06T18:44:35.966Z,100808.73
2018-12-06T18:47:07.598Z,100807.88
2018-12-06T18:49:37.902Z,100808.83
2018-12-06T18:52:07.864Z,100810.70
2018-12-06T18:54:39.565Z,100807.66
2018-12-06T18:57:08.689Z,100818.62
2018-12-06T18:59:37.827Z,100811.92
2018-12-06T19:02:06.879Z,100812.87
2018-12-06T19:04:36.059Z,100814.62
2018-12-06T19:07:05.224Z,100823.03
2018-12-06T19:09:34.371Z,100829.99
2018-12-06T19:12:03.534Z,100811.62
2018-12-06T19:14:32.649Z,100805.81
2018-12-06T19:17:01.871Z,100787.14
2018-12-06T19:19:31.662Z,100783.25
2018-12-06T19:22:00.910Z,100770.89
2018-12-06T19:24:30.033Z,100767.48
2018-12-06T19:26:59.153Z,100765.36
2018-12-06T19:29:32.313Z,100768.80
2018-12-06T19:32:01.719Z,100776.19
2018-12-06T19:34:33.307Z,100771.80
2018-12-06T19:37:03.701Z,100766.05
2018-12-06T19:39:32.958Z,100774.27
2018-12-06T19:42:02.894Z,100769.52
2018-12-06T19:44:32.783Z,100784.59
2018-12-06T19:47:01.952Z,100773.67
2018-12-06T20:21:38.026Z,100719.52
2018-12-06T20:24:07.517Z,100736.90
2018-12-06T20:33:51.855Z,100715.30
2018-12-06T20:39:14.715Z,100723.66
2018-12-06T20:44:38.613Z,100716.70
2018-12-06T20:47:09.940Z,100717.30
2018-12-06T20:49:43.610Z,100704.80
2018-12-06T20:53:44.057Z,100716.44
2018-12-06T21:15:24.727Z,100685.15
2018-12-06T21:17:53.902Z,100683.91
2018-12-06T21:33:28.561Z,100674.48
2018-12-06T21:45:05.003Z,100634.03
2018-12-06T21:55:29.415Z,100632.27
2018-12-06T21:57:58.976Z,100638.23
2018-12-06T22:00:40.051Z,100630.74
2018-12-06T22:06:02.803Z,100641.66
2018-12-06T22:08:37.641Z,100642.45
2018-12-06T22:11:06.730Z,100641.06
2018-12-06T22:13:35.739Z,100647.66
2018-12-06T22:16:04.771Z,100645.54
2018-12-06T22:18:33.980Z,100645.97
2018-12-06T22:21:02.995Z,100642.81
2018-12-06T22:23:32.077Z,100637.05
2018-12-06T22:26:01.111Z,100640.14
2018-12-06T22:28:34.038Z,100641.02
2018-12-06T22:31:01.174Z,100639.63
2018-12-06T22:33:30.199Z,100629.98
2018-12-06T22:35:59.248Z,100631.25
2018-12-06T22:38:34.052Z,100626.31
2018-12-06T22:40:59.371Z,100622.77
2018-12-06T22:43:28.448Z,100623.22
2018-12-06T22:46:04.369Z,100607.95
2018-12-06T22:51:26.602Z,100611.20
2018-12-06T22:53:55.592Z,100614.30
2018-12-06T22:56:24.706Z,100612.50
2018-12-06T22:58:57.552Z,100604.59
2018-12-06T23:01:32.001Z,100611.02
2018-12-06T23:04:01.065Z,100607.53
2018-12-06T23:06:30.093Z,100604.83
2018-12-06T23:08:59.101Z,100607.00
2018-12-06T23:11:28.158Z,100606.91
2018-12-06T23:13:58.247Z,100590.37
2018-12-06T23:16:27.390Z,100588.08
2018-12-06T23:18:56.431Z,100586.64
2018-12-06T23:21:26.095Z,100577.83
2018-12-06T23:23:56.304Z,100562.08
2018-12-06T23:26:31.620Z,100553.87
2018-12-06T23:29:00.664Z,100560.60
2018-12-06T23:31:29.680Z,100559.27
2018-12-06T23:33:58.692Z,100560.93
2018-12-06T23:39:21.058Z,100551.22
2018-12-06T23:41:50.145Z,100547.25
2018-12-06T23:44:19.813Z,100545.86
2018-12-06T23:47:09.689Z,100545.92
2018-12-06T23:52:33.694Z,100543.53
2018-12-06T23:55:05.545Z,100545.73
2018-12-06T23:57:40.090Z,100534.34
